createdAt,value
2019-03-17T00:00:08.555Z,14.77
2019-03-17T00:02:37.009Z,11.77
2019-03-17T00:05:06.507Z,12.53
2019-03-17T00:07:34.969Z,9.27
2019-03-17T00:10:03.583Z,8.73
2019-03-17T00:12:32.119Z,9.43
2019-03-17T00:15:05.478Z,9.63
2019-03-17T00:17:30.814Z,9.17
2019-03-17T00:19:59.287Z,7.77
2019-03-17T00:22:27.725Z,12.67
2019-03-17T00:25:08.184Z,11.33
2019-03-17T00:27:26.386Z,9.03
2019-03-17T00:29:54.835Z,10.90
2019-03-17T00:32:23.374Z,11.20
2019-03-17T00:34:51.855Z,10.60
2019-03-17T00:37:20.683Z,12.73
2019-03-17T00:39:49.136Z,12.03
2019-03-17T00:42:17.611Z,8.93
2019-03-17T00:44:46.072Z,12.17
2019-03-17T00:47:14.519Z,12.07
2019-03-17T00:49:42.994Z,11.37
2019-03-17T00:52:11.436Z,11.73
2019-03-17T00:54:39.890Z,14.57
2019-03-17T00:57:08.450Z,14.10
2019-03-17T00:59:36.922Z,16.37
2019-03-17T01:02:05.406Z,14.47
2019-03-17T01:04:33.869Z,13.50
2019-03-17T01:07:02.359Z,13.83
2019-03-17T01:09:30.814Z,14.17
2019-03-17T01:11:59.979Z,14.93
2019-03-17T01:14:28.484Z,11.67
2019-03-17T01:16:56.938Z,15.80
2019-03-17T01:19:25.409Z,14.53
2019-03-17T01:21:54.165Z,13.20
2019-03-17T01:24:22.711Z,16.33
2019-03-17T01:26:51.238Z,13.33
2019-03-17T01:29:19.941Z,12.93
2019-03-17T01:31:48.394Z,15.80
2019-03-17T01:34:16.850Z,13.00
2019-03-17T01:36:45.322Z,16.03
2019-03-17T01:39:13.851Z,15.50
2019-03-17T01:41:42.329Z,15.90
2019-03-17T01:44:10.793Z,20.00
2019-03-17T01:46:39.269Z,16.60
2019-03-17T01:49:07.728Z,17.70
2019-03-17T01:51:36.170Z,17.20
2019-03-17T01:54:04.727Z,17.10
2019-03-17T01:56:33.186Z,20.23
2019-03-17T01:59:01.752Z,19.93
2019-03-17T02:01:30.199Z,19.27
2019-03-17T02:04:17.994Z,17.33
2019-03-17T02:06:46.455Z,20.13
2019-03-17T02:09:15.126Z,17.43
2019-03-17T02:11:43.581Z,17.77
2019-03-17T02:14:12.049Z,15.73
2019-03-17T02:16:40.595Z,18.80
2019-03-17T02:19:09.060Z,19.30
2019-03-17T02:21:37.514Z,19.37
2019-03-17T02:24:06.047Z,21.07
2019-03-17T02:26:34.496Z,18.17
2019-03-17T02:29:02.950Z,17.90
2019-03-17T02:31:31.500Z,20.53
2019-03-17T02:34:00.156Z,20.30
2019-03-17T02:36:28.679Z,19.53
2019-03-17T02:38:57.336Z,22.50
2019-03-17T02:41:25.854Z,23.43
2019-03-17T02:43:54.305Z,20.60
2019-03-17T02:46:22.776Z,23.03
2019-03-17T02:48:51.265Z,20.57
2019-03-17T02:51:19.718Z,18.90
2019-03-17T02:53:48.192Z,19.67
2019-03-17T02:56:16.741Z,19.20
2019-03-17T02:58:45.291Z,23.13
2019-03-17T03:01:13.819Z,20.97
2019-03-17T03:03:42.341Z,19.70
2019-03-17T03:06:10.812Z,19.13
2019-03-17T03:08:39.348Z,18.80
2019-03-17T03:11:07.811Z,18.63
2019-03-17T03:13:36.342Z,18.27
2019-03-17T03:16:05.885Z,18.27
2019-03-17T03:18:34.999Z,19.07
2019-03-17T03:21:03.469Z,16.97
2019-03-17T03:23:32.054Z,19.87
2019-03-17T03:26:00.590Z,19.37
2019-03-17T03:28:29.044Z,19.00
2019-03-17T03:30:57.545Z,19.63
2019-03-17T03:33:26.002Z,19.77
2019-03-17T03:36:09.365Z,21.07
2019-03-17T03:38:24.639Z,18.57
2019-03-17T03:40:53.103Z,19.93
2019-03-17T03:43:21.651Z,19.10
2019-03-17T03:45:50.185Z,19.83
2019-03-17T03:48:18.986Z,22.27
2019-03-17T03:50:47.486Z,17.40
2019-03-17T03:53:16.050Z,19.33
2019-03-17T03:55:44.503Z,17.73
2019-03-17T03:58:13.051Z,17.07
2019-03-17T04:00:41.519Z,18.23
2019-03-17T04:03:10.061Z,18.63
2019-03-17T04:05:38.528Z,18.53
2019-03-17T04:08:07.207Z,16.87
2019-03-17T04:10:35.706Z,18.50
2019-03-17T04:13:04.156Z,20.93
2019-03-17T04:15:32.602Z,16.73
2019-03-17T04:18:01.265Z,19.13
2019-03-17T04:20:29.773Z,19.87
2019-03-17T04:22:58.213Z,20.53
2019-03-17T04:25:26.696Z,18.97
2019-03-17T04:27:55.154Z,19.70
2019-03-17T04:30:23.614Z,18.77
2019-03-17T04:32:52.179Z,20.73
2019-03-17T04:35:20.707Z,18.27
2019-03-17T04:37:49.265Z,19.80
2019-03-17T04:40:17.735Z,20.43
2019-03-17T04:42:46.236Z,21.53
2019-03-17T04:45:14.725Z,16.50
2019-03-17T04:47:43.170Z,19.90
2019-03-17T04:50:11.803Z,18.93
2019-03-17T04:52:40.277Z,23.30
2019-03-17T04:55:09.189Z,20.53
2019-03-17T04:57:37.717Z,22.57
2019-03-17T05:00:13.367Z,20.63
2019-03-17T05:02:41.821Z,22.33
2019-03-17T05:05:10.274Z,22.47
2019-03-17T05:07:38.759Z,16.73
2019-03-17T05:10:11.109Z,20.13
2019-03-17T05:12:39.557Z,21.83
2019-03-17T05:15:10.062Z,18.00
2019-03-17T05:17:38.731Z,19.67
2019-03-17T05:20:09.517Z,20.60
2019-03-17T05:22:37.983Z,20.03
2019-03-17T05:25:07.969Z,19.17
2019-03-17T05:27:36.431Z,19.97
2019-03-17T05:30:07.802Z,22.77
2019-03-17T05:32:36.263Z,20.33
2019-03-17T05:35:06.560Z,16.77
2019-03-17T05:37:35.015Z,19.20
2019-03-17T05:40:05.501Z,17.80
2019-03-17T05:42:34.036Z,18.70
2019-03-17T05:45:02.566Z,21.10
2019-03-17T05:47:31.027Z,18.60
2019-03-17T05:49:59.493Z,13.33
2019-03-17T05:52:28.053Z,21.23
2019-03-17T05:54:56.515Z,20.17
2019-03-17T05:57:24.957Z,18.57
2019-03-17T05:59:53.426Z,19.10
2019-03-17T06:02:21.886Z,19.57
2019-03-17T06:04:50.370Z,19.43
2019-03-17T06:07:19.225Z,15.37
2019-03-17T06:09:48.003Z,17.93
2019-03-17T06:12:16.472Z,20.07
2019-03-17T06:14:44.939Z,18.37
2019-03-17T06:17:13.402Z,17.70
2019-03-17T06:19:42.154Z,20.00
2019-03-17T06:22:10.697Z,22.23
2019-03-17T06:24:39.225Z,19.27
2019-03-17T06:27:07.681Z,18.37
2019-03-17T06:29:36.285Z,13.67
2019-03-17T06:32:04.801Z,23.90
2019-03-17T06:34:33.248Z,19.53
2019-03-17T06:37:01.723Z,19.33
2019-03-17T06:39:30.251Z,17.87
2019-03-17T06:41:58.693Z,22.27
2019-03-17T06:44:27.233Z,19.23
2019-03-17T06:46:56.079Z,19.13
2019-03-17T06:49:24.533Z,18.63
2019-03-17T06:51:53.065Z,17.53
2019-03-17T06:54:21.537Z,20.17
2019-03-17T06:56:50.105Z,15.03
2019-03-17T06:59:18.618Z,17.60
2019-03-17T07:01:47.151Z,16.80
2019-03-17T07:04:15.686Z,15.07
2019-03-17T07:06:44.256Z,11.50
2019-03-17T07:09:13.044Z,14.57
2019-03-17T07:11:41.569Z,17.67
2019-03-17T07:14:10.032Z,13.03
2019-03-17T07:16:38.482Z,12.97
2019-03-17T07:19:06.957Z,13.13
2019-03-17T07:21:35.404Z,14.77
2019-03-17T07:24:03.863Z,15.30
2019-03-17T07:26:32.322Z,15.80
2019-03-17T07:29:00.783Z,13.67
2019-03-17T07:31:29.652Z,12.17
2019-03-17T07:33:58.114Z,16.77
2019-03-17T07:36:26.580Z,15.83
2019-03-17T07:38:55.120Z,13.47
2019-03-17T07:41:23.641Z,14.07
2019-03-17T07:43:52.126Z,13.23
2019-03-17T07:46:20.794Z,12.37
2019-03-17T07:48:49.307Z,13.57
2019-03-17T07:51:17.796Z,13.97
2019-03-17T07:53:46.242Z,13.13
2019-03-17T07:56:14.695Z,11.93
2019-03-17T07:59:02.543Z,14.10
2019-03-17T08:01:31.013Z,14.30
2019-03-17T08:03:59.587Z,10.20
2019-03-17T08:06:28.132Z,12.53
2019-03-17T08:08:56.580Z,10.57
2019-03-17T08:11:25.044Z,12.73
2019-03-17T08:13:53.539Z,10.27
2019-03-17T08:16:22.005Z,10.43
2019-03-17T08:18:50.542Z,11.67
2019-03-17T08:21:19.069Z,12.90
2019-03-17T08:23:47.603Z,9.90
2019-03-17T08:26:16.266Z,8.83
2019-03-17T08:28:44.729Z,11.23
2019-03-17T08:31:13.188Z,11.83
2019-03-17T08:33:41.643Z,10.60
2019-03-17T08:36:10.114Z,10.47
2019-03-17T08:38:38.775Z,11.77
2019-03-17T08:41:07.290Z,10.37
2019-03-17T08:43:35.756Z,11.10
2019-03-17T08:46:04.544Z,10.40
2019-03-17T08:48:33.011Z,10.33
2019-03-17T08:51:01.478Z,9.87
2019-03-17T08:53:30.012Z,9.47
2019-03-17T08:55:58.494Z,9.97
2019-03-17T08:58:26.933Z,8.17
2019-03-17T09:00:55.405Z,7.97
2019-03-17T09:03:24.085Z,10.13
2019-03-17T09:05:54.328Z,10.37
2019-03-17T09:08:34.343Z,9.93
2019-03-17T09:10:52.966Z,10.20
2019-03-17T09:13:21.592Z,7.83
2019-03-17T09:15:50.131Z,9.57
2019-03-17T09:18:18.650Z,9.20
2019-03-17T09:20:47.343Z,10.63
2019-03-17T09:23:15.934Z,7.03
2019-03-17T09:25:44.399Z,9.33
2019-03-17T09:28:12.852Z,8.13
2019-03-17T09:30:41.352Z,8.27
2019-03-17T09:33:09.804Z,8.77
2019-03-17T09:35:38.333Z,9.00
2019-03-17T09:38:06.786Z,8.87
2019-03-17T09:40:35.242Z,8.73
2019-03-17T09:43:03.697Z,10.37
2019-03-17T09:45:33.263Z,9.60
2019-03-17T09:48:02.136Z,8.90
2019-03-17T09:50:30.603Z,6.77
2019-03-17T09:52:59.127Z,7.90
2019-03-17T09:55:27.724Z,10.77
2019-03-17T09:57:56.186Z,7.53
2019-03-17T10:00:24.727Z,7.70
2019-03-17T10:02:53.251Z,9.67
2019-03-17T10:05:21.792Z,8.63
2019-03-17T10:07:50.237Z,6.53
2019-03-17T10:10:20.897Z,8.20
2019-03-17T10:12:49.357Z,7.30
2019-03-17T10:15:19.561Z,6.87
2019-03-17T10:17:48.122Z,4.87
2019-03-17T10:20:17.814Z,5.60
2019-03-17T10:22:46.263Z,6.20
2019-03-17T10:25:14.754Z,8.33
2019-03-17T10:27:43.578Z,5.50
2019-03-17T10:30:19.323Z,4.90
2019-03-17T10:32:47.787Z,4.83
2019-03-17T10:35:16.322Z,5.80
2019-03-17T10:37:44.856Z,5.90
2019-03-17T10:40:21.454Z,6.50
2019-03-17T10:42:50.361Z,7.07
2019-03-17T10:45:18.815Z,4.73
2019-03-17T10:47:47.262Z,6.07
2019-03-17T10:50:19.869Z,6.33
2019-03-17T10:52:48.627Z,6.40
2019-03-17T10:55:17.511Z,6.33
2019-03-17T10:57:46.227Z,4.60
2019-03-17T11:00:16.803Z,5.20
2019-03-17T11:02:45.262Z,6.40
2019-03-17T11:05:13.958Z,5.80
2019-03-17T11:07:42.411Z,6.77
2019-03-17T11:10:12.227Z,7.13
2019-03-17T11:12:40.679Z,5.30
2019-03-17T11:15:22.154Z,3.93
2019-03-17T11:17:50.679Z,6.20
2019-03-17T11:20:19.624Z,5.23
2019-03-17T11:22:48.078Z,4.70
2019-03-17T11:25:20.261Z,4.47
2019-03-17T11:27:48.809Z,3.23
2019-03-17T11:30:21.900Z,5.03
2019-03-17T11:32:50.362Z,4.67
2019-03-17T11:35:18.834Z,3.90
2019-03-17T11:37:47.291Z,3.27
2019-03-17T11:40:19.698Z,5.17
2019-03-17T11:42:50.165Z,4.10
2019-03-17T11:45:19.259Z,3.83
2019-03-17T11:47:47.851Z,4.47
2019-03-17T11:50:17.829Z,6.67
2019-03-17T11:53:05.707Z,3.23
2019-03-17T11:55:34.239Z,3.60
2019-03-17T11:58:02.719Z,4.10
2019-03-17T12:00:31.177Z,4.90
2019-03-17T12:02:59.709Z,6.50
2019-03-17T12:05:28.176Z,3.43
2019-03-17T12:07:56.716Z,5.60
2019-03-17T12:10:25.243Z,4.17
2019-03-17T12:12:53.883Z,2.90
2019-03-17T12:15:25.011Z,4.30
2019-03-17T12:17:53.528Z,4.33
2019-03-17T12:20:22.033Z,4.70
2019-03-17T12:22:50.553Z,4.30
2019-03-17T12:25:19.557Z,2.93
2019-03-17T12:27:48.116Z,3.57
2019-03-17T12:30:23.606Z,7.83
2019-03-17T12:32:53.504Z,3.73
2019-03-17T12:35:22.821Z,3.83
2019-03-17T12:37:52.093Z,4.53
2019-03-17T12:40:20.771Z,4.83
2019-03-17T12:42:49.318Z,5.77
2019-03-17T12:45:17.920Z,5.17
2019-03-17T12:47:46.375Z,2.17
2019-03-17T12:50:19.974Z,4.77
2019-03-17T12:52:48.510Z,3.37
2019-03-17T12:55:16.991Z,3.63
2019-03-17T12:57:46.204Z,3.13
2019-03-17T13:00:16.397Z,2.80
2019-03-17T13:02:44.931Z,3.87
2019-03-17T13:05:33.168Z,5.03
2019-03-17T13:08:01.613Z,3.00
2019-03-17T13:10:30.079Z,4.23
2019-03-17T13:12:58.566Z,3.63
2019-03-17T13:15:27.019Z,5.13
2019-03-17T13:17:55.475Z,3.03
2019-03-17T13:20:24.125Z,3.53
2019-03-17T13:22:53.349Z,2.77
2019-03-17T13:25:21.968Z,4.10
2019-03-17T13:27:50.488Z,3.87
2019-03-17T13:30:19.574Z,2.53
2019-03-17T13:32:48.431Z,4.73
2019-03-17T13:35:16.894Z,3.87
2019-03-17T13:37:45.425Z,3.30
2019-03-17T13:40:27.618Z,3.73
2019-03-17T13:42:45.600Z,3.63
2019-03-17T13:45:14.897Z,4.17
2019-03-17T13:47:43.737Z,2.77
2019-03-17T13:50:21.208Z,2.33
2019-03-17T13:52:49.669Z,4.03
2019-03-17T13:55:18.291Z,3.07
2019-03-17T13:57:55.746Z,4.27
2019-03-17T14:00:24.203Z,5.07
2019-03-17T14:02:52.657Z,4.37
2019-03-17T14:05:21.106Z,3.53
2019-03-17T14:07:49.838Z,2.17
2019-03-17T14:10:19.275Z,3.43
2019-03-17T14:12:47.803Z,4.63
2019-03-17T14:15:16.562Z,3.17
2019-03-17T14:17:45.048Z,2.47
2019-03-17T14:20:21.591Z,4.37
2019-03-17T14:22:50.566Z,4.20
2019-03-17T14:25:31.565Z,3.47
2019-03-17T14:28:00.152Z,2.60
2019-03-17T14:30:28.941Z,3.93
2019-03-17T14:32:57.411Z,5.47
2019-03-17T14:35:25.942Z,3.40
2019-03-17T14:37:54.476Z,5.33
2019-03-17T14:40:23.010Z,4.20
2019-03-17T14:42:51.836Z,6.17
2019-03-17T14:45:20.360Z,2.73
2019-03-17T14:47:54.746Z,4.10
2019-03-17T14:50:24.646Z,4.23
2019-03-17T14:52:53.187Z,3.23
2019-03-17T14:55:21.707Z,5.23
2019-03-17T14:57:50.169Z,4.50
2019-03-17T15:00:25.184Z,3.17
2019-03-17T15:02:53.719Z,5.13
2019-03-17T15:05:25.046Z,3.83
2019-03-17T15:07:52.505Z,2.70
2019-03-17T15:10:25.476Z,2.83
2019-03-17T15:12:54.012Z,3.70
2019-03-17T15:15:23.595Z,2.33
2019-03-17T15:17:52.123Z,3.53
2019-03-17T15:20:25.438Z,2.60
2019-03-17T15:22:54.446Z,2.87
2019-03-17T15:25:22.986Z,2.70
2019-03-17T15:27:51.443Z,2.50
2019-03-17T15:30:27.264Z,4.20
2019-03-17T15:32:55.957Z,3.20
2019-03-17T15:35:24.418Z,3.63
2019-03-17T15:37:52.955Z,3.73
2019-03-17T15:40:22.355Z,3.90
2019-03-17T15:42:50.920Z,5.30
2019-03-17T15:45:26.207Z,7.67
2019-03-17T15:47:54.791Z,5.00
2019-03-17T15:50:25.694Z,7.40
2019-03-17T15:52:54.138Z,7.83
2019-03-17T15:55:22.690Z,5.73
2019-03-17T15:57:51.366Z,9.67
2019-03-17T16:00:27.212Z,11.43
2019-03-17T16:02:55.924Z,7.40
2019-03-17T16:05:24.455Z,8.23
2019-03-17T16:07:52.997Z,6.53
2019-03-17T16:10:27.498Z,6.20
2019-03-17T16:12:56.032Z,6.37
2019-03-17T16:15:25.051Z,5.27
2019-03-17T16:17:54.048Z,5.27
2019-03-17T16:20:26.473Z,6.57
2019-03-17T16:22:55.418Z,4.90
2019-03-17T16:25:28.203Z,5.30
2019-03-17T16:27:56.645Z,5.77
2019-03-17T16:30:27.710Z,6.73
2019-03-17T16:32:56.683Z,6.00
2019-03-17T16:35:25.490Z,4.83
2019-03-17T16:37:54.979Z,7.17
2019-03-17T16:40:29.499Z,5.20
2019-03-17T16:42:58.089Z,6.73
2019-03-17T16:45:26.693Z,4.53
2019-03-17T16:47:55.159Z,4.60
2019-03-17T16:50:24.563Z,8.20
2019-03-17T16:52:53.177Z,7.23
2019-03-17T16:55:21.968Z,6.70
2019-03-17T16:57:50.432Z,7.85
2019-03-17T17:00:23.718Z,9.13
2019-03-17T17:02:52.456Z,6.50
2019-03-17T17:05:21.964Z,7.77
2019-03-17T17:07:50.649Z,7.30
2019-03-17T17:10:24.551Z,6.90
2019-03-17T17:12:53.007Z,7.67
2019-03-17T17:15:26.243Z,7.00
2019-03-17T17:17:54.711Z,7.33
2019-03-17T17:20:39.551Z,8.07
2019-03-17T17:23:08.024Z,10.90
2019-03-17T17:25:36.600Z,10.40
2019-03-17T17:28:05.087Z,10.97
2019-03-17T17:30:33.667Z,12.57
2019-03-17T17:33:02.212Z,9.63
2019-03-17T17:35:30.748Z,7.23
2019-03-17T17:37:59.273Z,8.40
2019-03-17T17:40:28.180Z,7.40
2019-03-17T17:42:56.712Z,10.67
2019-03-17T17:45:28.160Z,8.13
2019-03-17T17:47:56.986Z,11.93
2019-03-17T17:50:27.533Z,15.27
2019-03-17T17:52:56.041Z,12.10
2019-03-17T17:55:24.581Z,14.20
2019-03-17T17:57:53.431Z,11.37
2019-03-17T18:00:35.668Z,15.77
2019-03-17T18:03:04.737Z,13.27
2019-03-17T18:05:33.226Z,18.57
2019-03-17T18:08:01.818Z,16.60
2019-03-17T18:10:30.469Z,14.57
2019-03-17T18:12:59.090Z,25.43
2019-03-17T18:15:30.364Z,23.67
2019-03-17T18:17:59.007Z,37.10
2019-03-17T18:20:47.128Z,48.10
2019-03-17T18:23:18.246Z,38.23
2019-03-17T18:25:45.849Z,31.87
2019-03-17T18:28:21.620Z,26.43
2019-03-17T18:30:50.191Z,25.93
2019-03-17T18:33:18.659Z,20.77
2019-03-17T18:35:47.344Z,16.10
2019-03-17T18:38:15.898Z,14.07
2019-03-17T18:40:44.454Z,14.97
2019-03-17T18:43:12.911Z,13.43
2019-03-17T18:45:42.664Z,13.03
2019-03-17T18:48:11.516Z,12.03
2019-03-17T18:50:40.068Z,12.93
2019-03-17T18:53:08.561Z,10.07
2019-03-17T18:55:37.497Z,9.90
2019-03-17T18:58:06.057Z,9.60
2019-03-17T19:00:34.963Z,11.77
2019-03-17T19:03:03.429Z,11.57
2019-03-17T19:05:31.878Z,13.50
2019-03-17T19:08:00.347Z,12.23
2019-03-17T19:10:30.339Z,16.10
2019-03-17T19:12:58.796Z,14.27
2019-03-17T19:15:27.250Z,14.77
2019-03-17T19:18:01.741Z,12.87
2019-03-17T19:20:30.230Z,14.70
2019-03-17T19:22:58.705Z,17.63
2019-03-17T19:25:27.277Z,13.80
2019-03-17T19:27:55.766Z,15.93
2019-03-17T19:30:24.508Z,16.10
2019-03-17T19:32:53.054Z,18.77
2019-03-17T19:35:21.527Z,17.50
2019-03-17T19:37:50.022Z,15.47
2019-03-17T19:40:20.124Z,12.57
2019-03-17T19:42:57.922Z,14.17
2019-03-17T19:45:19.005Z,12.83
2019-03-17T19:47:47.467Z,16.33
2019-03-17T19:50:21.478Z,17.27
2019-03-17T19:52:50.014Z,17.37
2019-03-17T19:55:18.660Z,17.93
2019-03-17T19:57:47.285Z,45.83
2019-03-17T20:00:17.333Z,35.60
2019-03-17T20:02:47.790Z,29.73
2019-03-17T20:05:16.217Z,31.80
2019-03-17T20:07:44.675Z,43.53
2019-03-17T20:10:22.238Z,38.33
2019-03-17T20:12:50.807Z,34.83
2019-03-17T20:15:19.262Z,28.17
2019-03-17T20:17:47.835Z,28.23
2019-03-17T20:20:16.328Z,33.37
2019-03-17T20:22:44.794Z,36.50
2019-03-17T20:25:13.395Z,32.93
2019-03-17T20:27:41.921Z,33.00
2019-03-17T20:30:15.076Z,42.07
2019-03-17T20:32:43.619Z,45.47
2019-03-17T20:35:13.318Z,64.90
2019-03-17T20:37:42.047Z,79.20
2019-03-17T20:40:14.778Z,39.47
2019-03-17T20:42:43.367Z,31.77
2019-03-17T20:45:13.337Z,33.97
2019-03-17T20:47:41.892Z,33.33
2019-03-17T20:50:12.565Z,38.43
2019-03-17T20:52:41.037Z,37.60
2019-03-17T20:55:13.110Z,47.83
2019-03-17T20:57:42.024Z,65.40
2019-03-17T21:00:17.750Z,46.50
2019-03-17T21:02:46.304Z,41.73
2019-03-17T21:05:15.207Z,29.90
2019-03-17T21:07:43.671Z,25.57
2019-03-17T21:10:16.155Z,27.00
2019-03-17T21:12:44.677Z,24.70
2019-03-17T21:15:19.647Z,22.57
2019-03-17T21:17:48.269Z,22.87
2019-03-17T21:20:18.544Z,22.67
2019-03-17T21:22:47.170Z,21.13
2019-03-17T21:25:15.634Z,21.63
2019-03-17T21:27:44.105Z,19.63
2019-03-17T21:30:18.693Z,18.77
2019-03-17T21:32:47.625Z,15.87
2019-03-17T21:35:16.064Z,15.17
2019-03-17T21:37:44.699Z,16.90
2019-03-17T21:40:13.406Z,13.37
2019-03-17T21:42:41.871Z,16.03
2019-03-17T21:45:12.519Z,14.30
2019-03-17T21:47:41.006Z,15.53
2019-03-17T21:50:20.630Z,11.83
2019-03-17T21:52:49.652Z,17.40
2019-03-17T21:55:18.250Z,20.40
2019-03-17T21:57:46.796Z,19.00
2019-03-17T22:00:22.054Z,19.57
2019-03-17T22:02:50.551Z,14.63
2019-03-17T22:05:19.089Z,17.87
2019-03-17T22:07:50.581Z,7.40
2019-03-17T22:10:19.088Z,10.10
2019-03-17T22:12:47.578Z,6.83
2019-03-17T22:15:17.131Z,7.47
2019-03-17T22:17:45.667Z,7.67
2019-03-17T22:20:15.378Z,5.50
2019-03-17T22:22:43.987Z,8.87
2019-03-17T22:25:14.931Z,7.10
2019-03-17T22:27:43.450Z,6.97
2019-03-17T22:30:16.262Z,7.67
2019-03-17T22:32:44.720Z,6.20
2019-03-17T22:35:13.255Z,6.23
2019-03-17T22:37:41.740Z,5.37
2019-03-17T22:40:18.357Z,5.50
2019-03-17T22:42:46.940Z,4.03
2019-03-17T22:45:17.084Z,6.23
2019-03-17T22:47:45.725Z,2.93
2019-03-17T22:50:18.307Z,4.77
2019-03-17T22:52:48.400Z,3.17
2019-03-17T22:55:17.141Z,3.30
2019-03-17T22:57:45.725Z,3.10
2019-03-17T23:00:25.970Z,2.53
2019-03-17T23:02:54.589Z,3.37
2019-03-17T23:05:23.040Z,2.47
2019-03-17T23:07:51.499Z,2.97
2019-03-17T23:10:20.094Z,2.33
2019-03-17T23:12:48.542Z,3.07
2019-03-17T23:15:17.159Z,1.57
2019-03-17T23:17:45.686Z,2.13
2019-03-17T23:20:16.310Z,1.80
2019-03-17T23:22:44.949Z,3.30
2019-03-17T23:25:13.950Z,1.30
2019-03-17T23:27:42.430Z,1.67
2019-03-17T23:30:19.295Z,2.30
2019-03-17T23:32:49.440Z,2.37
2019-03-17T23:35:18.267Z,1.40
2019-03-17T23:37:46.785Z,1.47
2019-03-17T23:40:17.447Z,1.23
2019-03-17T23:42:46.063Z,1.27
2019-03-17T23:45:15.147Z,1.47
2019-03-17T23:47:43.603Z,1.20
2019-03-17T23:50:13.834Z,7.77
2019-03-17T23:52:42.378Z,0.73
2019-03-17T23:55:12.676Z,0.60
2019-03-17T23:57:42.186Z,1.20
